DGVIP EDRY-EDLP
Flight info
| Callsign | DGVIP |
|---|---|
| Flight time | 1h 15m |
| Altitude | 8000 |
| Route | MND DCT FKS DCT SOGMI DCT EMBAD DCT WRB WRB6H |
| Aircraft | DA42/L-SDFGRY/C |
Departure
| Time | 2026-05-01 09:59 |
|---|---|
| Airport | Speyer Airfield (EDRY) |
Arrival
| Time | 2026-05-01 11:15 |
|---|---|
| Airport | Paderborn Lippstadt Airport (EDLP) |
| Time | Latitude | Longitude | Altitude | Speed | Heading |
|---|---|---|---|---|---|
| 2026-05-01 09:41 | 49.30161 | 8.45482 | 335 ft | 0 kts | 347° |
| 2026-05-01 09:55 | 49.30162 | 8.45482 | 335 ft | 1 kts | 341° |
| 2026-05-01 09:55 | 49.30148 | 8.45477 | 336 ft | 4 kts | 175° |
| 2026-05-01 09:56 | 49.30155 | 8.45431 | 335 ft | 10 kts | 351° |
| 2026-05-01 09:56 | 49.30245 | 8.45395 | 335 ft | 16 kts | 347° |
| 2026-05-01 09:56 | 49.30368 | 8.45351 | 335 ft | 20 kts | 345° |
| 2026-05-01 09:56 | 49.30467 | 8.45302 | 332 ft | 14 kts | 344° |
| 2026-05-01 09:57 | 49.30579 | 8.45258 | 332 ft | 18 kts | 346° |
| 2026-05-01 09:57 | 49.30708 | 8.45205 | 332 ft | 20 kts | 336° |
| 2026-05-01 09:57 | 49.30814 | 8.45144 | 333 ft | 16 kts | 339° |
| 2026-05-01 09:57 | 49.30836 | 8.45039 | 334 ft | 10 kts | 220° |
| 2026-05-01 09:58 | 49.30816 | 8.45038 | 334 ft | 0 kts | 160° |
| 2026-05-01 09:58 | 49.30762 | 8.45069 | 333 ft | 29 kts | 161° |
| 2026-05-01 09:58 | 49.30393 | 8.45210 | 333 ft | 76 kts | 165° |
| 2026-05-01 09:58 | 49.29837 | 8.45363 | 483 ft | 91 kts | 161° |
| 2026-05-01 09:59 | 49.29119 | 8.45513 | 502 ft | 116 kts | 174° |
| 2026-05-01 09:59 | 49.28296 | 8.45634 | 600 ft | 124 kts | 163° |
| 2026-05-01 09:59 | 49.27498 | 8.45835 | 995 ft | 108 kts | 166° |
| 2026-05-01 09:59 | 49.26750 | 8.46050 | 1171 ft | 112 kts | 160° |
| 2026-05-01 10:00 | 49.26200 | 8.46711 | 1438 ft | 94 kts | 110° |
| 2026-05-01 10:00 | 49.26127 | 8.47621 | 1822 ft | 83 kts | 89° |
| 2026-05-01 10:00 | 49.26260 | 8.48426 | 2193 ft | 73 kts | 72° |
| 2026-05-01 10:00 | 49.26535 | 8.49050 | 2576 ft | 72 kts | 68° |
| 2026-05-01 10:01 | 49.26958 | 8.49476 | 2931 ft | 71 kts | 44° |
| 2026-05-01 10:01 | 49.27575 | 8.49684 | 3027 ft | 109 kts | 6° |
| 2026-05-01 10:01 | 49.28312 | 8.49670 | 3405 ft | 104 kts | 10° |
| 2026-05-01 10:01 | 49.28999 | 8.49697 | 3773 ft | 92 kts | 15° |
| 2026-05-01 10:02 | 49.29628 | 8.49757 | 3975 ft | 101 kts | 14° |
| 2026-05-01 10:02 | 49.30420 | 8.49862 | 3987 ft | 127 kts | 12° |
| 2026-05-01 10:02 | 49.31362 | 8.49974 | 3989 ft | 146 kts | 10° |
| 2026-05-01 10:02 | 49.32433 | 8.50086 | 3988 ft | 160 kts | 9° |
| 2026-05-01 10:03 | 49.33564 | 8.50186 | 3985 ft | 163 kts | 9° |
| 2026-05-01 10:03 | 49.34714 | 8.50314 | 3982 ft | 168 kts | 10° |
| 2026-05-01 10:03 | 49.35883 | 8.50420 | 3980 ft | 171 kts | 7° |
| 2026-05-01 10:03 | 49.37068 | 8.50540 | 3978 ft | 169 kts | 10° |
| 2026-05-01 10:04 | 49.38224 | 8.50678 | 3978 ft | 168 kts | 10° |
| 2026-05-01 10:04 | 49.39398 | 8.50797 | 3984 ft | 167 kts | 9° |
| 2026-05-01 10:04 | 49.40500 | 8.50902 | 4292 ft | 148 kts | 10° |
| 2026-05-01 10:04 | 49.41466 | 8.50998 | 4656 ft | 132 kts | 11° |
| 2026-05-01 10:05 | 49.42363 | 8.51091 | 5047 ft | 126 kts | 9° |
| 2026-05-01 10:05 | 49.43203 | 8.51182 | 5406 ft | 118 kts | 10° |
| 2026-05-01 10:05 | 49.44001 | 8.51264 | 5771 ft | 111 kts | 11° |
| 2026-05-01 10:05 | 49.44793 | 8.51358 | 5985 ft | 123 kts | 11° |
| 2026-05-01 10:06 | 49.45719 | 8.51469 | 5993 ft | 145 kts | 10° |
| 2026-05-01 10:06 | 49.46766 | 8.51583 | 5991 ft | 157 kts | 9° |
| 2026-05-01 10:06 | 49.47895 | 8.51690 | 5988 ft | 164 kts | 7° |
| 2026-05-01 10:06 | 49.49044 | 8.51794 | 5997 ft | 166 kts | 8° |
| 2026-05-01 10:07 | 49.50206 | 8.51849 | 5990 ft | 172 kts | 356° |
| 2026-05-01 10:07 | 49.51340 | 8.51156 | 5986 ft | 176 kts | 333° |
| 2026-05-01 10:07 | 49.52402 | 8.50245 | 5991 ft | 176 kts | 333° |
| 2026-05-01 10:07 | 49.53495 | 8.49370 | 5986 ft | 176 kts | 335° |
| 2026-05-01 10:08 | 49.55673 | 8.47721 | 5986 ft | 174 kts | 336° |
| 2026-05-01 10:08 | 49.56749 | 8.46900 | 5991 ft | 175 kts | 335° |
| 2026-05-01 10:08 | 49.57849 | 8.46068 | 5983 ft | 176 kts | 335° |
| 2026-05-01 10:09 | 49.58953 | 8.45219 | 5984 ft | 177 kts | 335° |
| 2026-05-01 10:09 | 49.60042 | 8.44391 | 5990 ft | 175 kts | 336° |
| 2026-05-01 10:09 | 49.61150 | 8.43553 | 5974 ft | 177 kts | 336° |
| 2026-05-01 10:09 | 49.62244 | 8.42728 | 5978 ft | 176 kts | 336° |
| 2026-05-01 10:10 | 49.63347 | 8.41879 | 5977 ft | 177 kts | 336° |
| 2026-05-01 10:10 | 49.64444 | 8.41039 | 5972 ft | 177 kts | 335° |
| 2026-05-01 10:10 | 49.66637 | 8.39363 | 5979 ft | 175 kts | 335° |
| 2026-05-01 10:11 | 49.67722 | 8.38537 | 5972 ft | 176 kts | 338° |
| 2026-05-01 10:11 | 49.68836 | 8.37717 | 5971 ft | 177 kts | 335° |
| 2026-05-01 10:11 | 49.69939 | 8.36857 | 5968 ft | 177 kts | 335° |
| 2026-05-01 10:11 | 49.71039 | 8.35994 | 5973 ft | 177 kts | 335° |
| 2026-05-01 10:12 | 49.72145 | 8.35153 | 5973 ft | 178 kts | 336° |
| 2026-05-01 10:12 | 49.72886 | 8.34594 | 5968 ft | 177 kts | 336° |
| 2026-05-01 10:12 | 49.75461 | 8.32620 | 5968 ft | 177 kts | 335° |
| 2026-05-01 10:13 | 49.76553 | 8.31784 | 5972 ft | 176 kts | 336° |
| 2026-05-01 10:13 | 49.77666 | 8.30934 | 5976 ft | 178 kts | 335° |
| 2026-05-01 10:13 | 49.78393 | 8.30346 | 5978 ft | 178 kts | 336° |
| 2026-05-01 10:14 | 49.80639 | 8.28670 | 5968 ft | 178 kts | 336° |
| 2026-05-01 10:14 | 49.82103 | 8.27533 | 5973 ft | 176 kts | 335° |
| 2026-05-01 10:14 | 49.82841 | 8.26952 | 5972 ft | 175 kts | 335° |
| 2026-05-01 10:14 | 49.83928 | 8.26123 | 5969 ft | 177 kts | 337° |
| 2026-05-01 10:15 | 49.85031 | 8.25270 | 5978 ft | 178 kts | 335° |
| 2026-05-01 10:15 | 49.86153 | 8.24386 | 5832 ft | 186 kts | 335° |
| 2026-05-01 10:15 | 49.87373 | 8.23473 | 5461 ft | 198 kts | 337° |
| 2026-05-01 10:15 | 49.88624 | 8.22530 | 5088 ft | 204 kts | 335° |
| 2026-05-01 10:16 | 49.89905 | 8.21534 | 4710 ft | 206 kts | 337° |
| 2026-05-01 10:16 | 49.91198 | 8.20699 | 4307 ft | 200 kts | 349° |
| 2026-05-01 10:16 | 49.93780 | 8.21027 | 3966 ft | 168 kts | 33° |
| 2026-05-01 10:17 | 49.94685 | 8.21955 | 3969 ft | 147 kts | 51° |
| 2026-05-01 10:17 | 49.95737 | 8.24374 | 3985 ft | 130 kts | 79° |
| 2026-05-01 10:17 | 49.95912 | 8.25711 | 3980 ft | 123 kts | 90° |
| 2026-05-01 10:18 | 49.96598 | 8.28231 | 3745 ft | 139 kts | 69° |
| 2026-05-01 10:18 | 49.97002 | 8.29594 | 3553 ft | 144 kts | 75° |
| 2026-05-01 10:18 | 49.97365 | 8.31020 | 3369 ft | 141 kts | 78° |
| 2026-05-01 10:19 | 49.97720 | 8.32394 | 3177 ft | 130 kts | 75° |
| 2026-05-01 10:19 | 49.98009 | 8.33643 | 3005 ft | 122 kts | 79° |
| 2026-05-01 10:19 | 49.98287 | 8.34847 | 2857 ft | 120 kts | 75° |
| 2026-05-01 10:20 | 49.98865 | 8.37149 | 2549 ft | 112 kts | 72° |
| 2026-05-01 10:20 | 49.99146 | 8.38279 | 2421 ft | 111 kts | 75° |
| 2026-05-01 10:20 | 49.99377 | 8.39458 | 2243 ft | 114 kts | 81° |
| 2026-05-01 10:20 | 49.99670 | 8.40634 | 2082 ft | 114 kts | 72° |
| 2026-05-01 10:21 | 49.99959 | 8.41755 | 1919 ft | 112 kts | 72° |
| 2026-05-01 10:21 | 50.00501 | 8.44008 | 1633 ft | 108 kts | 74° |
| 2026-05-01 10:21 | 50.00766 | 8.45100 | 1493 ft | 108 kts | 73° |
| 2026-05-01 10:22 | 50.01305 | 8.47332 | 1199 ft | 108 kts | 72° |
| 2026-05-01 10:22 | 50.01810 | 8.49491 | 894 ft | 98 kts | 73° |
| 2026-05-01 10:23 | 50.02038 | 8.50443 | 773 ft | 93 kts | 73° |
| 2026-05-01 10:23 | 50.02471 | 8.52278 | 559 ft | 88 kts | 72° |
| 2026-05-01 10:23 | 50.02701 | 8.53157 | 409 ft | 88 kts | 73° |
| 2026-05-01 10:24 | 50.03034 | 8.54567 | 328 ft | 39 kts | 73° |
| 2026-05-01 10:24 | 50.03362 | 8.55863 | 502 ft | 80 kts | 69° |
| 2026-05-01 10:25 | 50.03852 | 8.57646 | 963 ft | 92 kts | 71° |
| 2026-05-01 10:25 | 50.04331 | 8.59424 | 1601 ft | 88 kts | 71° |
| 2026-05-01 10:26 | 50.04573 | 8.60286 | 1984 ft | 87 kts | 76° |
| 2026-05-01 10:26 | 50.04825 | 8.61156 | 2282 ft | 88 kts | 70° |
| 2026-05-01 10:26 | 50.05354 | 8.62897 | 2890 ft | 90 kts | 71° |
| 2026-05-01 10:27 | 50.06186 | 8.64390 | 3484 ft | 104 kts | 33° |
| 2026-05-01 10:27 | 50.07563 | 8.65163 | 4070 ft | 107 kts | 33° |
| 2026-05-01 10:28 | 50.08272 | 8.65545 | 4388 ft | 108 kts | 31° |
| 2026-05-01 10:28 | 50.09688 | 8.66317 | 5039 ft | 109 kts | 32° |
| 2026-05-01 10:28 | 50.10414 | 8.66709 | 5332 ft | 110 kts | 32° |
| 2026-05-01 10:29 | 50.11862 | 8.67494 | 5908 ft | 110 kts | 30° |
| 2026-05-01 10:29 | 50.12585 | 8.67884 | 6184 ft | 110 kts | 30° |
| 2026-05-01 10:30 | 50.14036 | 8.68672 | 6736 ft | 111 kts | 30° |
| 2026-05-01 10:30 | 50.15483 | 8.69462 | 7292 ft | 110 kts | 30° |
| 2026-05-01 10:31 | 50.16937 | 8.70250 | 7868 ft | 110 kts | 29° |
| 2026-05-01 10:31 | 50.18590 | 8.71172 | 8000 ft | 145 kts | 28° |
| 2026-05-01 10:32 | 50.20622 | 8.72279 | 8000 ft | 162 kts | 26° |
| 2026-05-01 10:32 | 50.21701 | 8.72871 | 8002 ft | 166 kts | 26° |
| 2026-05-01 10:32 | 50.23894 | 8.74048 | 8001 ft | 169 kts | 25° |
| 2026-05-01 10:33 | 50.26127 | 8.75269 | 7994 ft | 169 kts | 26° |
| 2026-05-01 10:33 | 50.28352 | 8.76484 | 7998 ft | 171 kts | 25° |
| 2026-05-01 10:34 | 50.29473 | 8.77098 | 7997 ft | 170 kts | 26° |
| 2026-05-01 10:34 | 50.30592 | 8.77716 | 7998 ft | 170 kts | 26° |
| 2026-05-01 10:34 | 50.31706 | 8.78324 | 7992 ft | 171 kts | 26° |
| 2026-05-01 10:35 | 50.33935 | 8.79547 | 7992 ft | 168 kts | 26° |
| 2026-05-01 10:35 | 50.35029 | 8.80146 | 7989 ft | 167 kts | 26° |
| 2026-05-01 10:35 | 50.36122 | 8.80746 | 7993 ft | 168 kts | 26° |
| 2026-05-01 10:35 | 50.37238 | 8.81360 | 7993 ft | 170 kts | 26° |
| 2026-05-01 10:36 | 50.39474 | 8.82590 | 7993 ft | 170 kts | 26° |
| 2026-05-01 10:36 | 50.40587 | 8.83202 | 7993 ft | 168 kts | 25° |
| 2026-05-01 10:36 | 50.41705 | 8.83821 | 7992 ft | 169 kts | 26° |
| 2026-05-01 10:37 | 50.42804 | 8.84426 | 7995 ft | 170 kts | 26° |
| 2026-05-01 10:37 | 50.45037 | 8.85653 | 7994 ft | 169 kts | 26° |
| 2026-05-01 10:37 | 50.46134 | 8.86258 | 7994 ft | 170 kts | 26° |
| 2026-05-01 10:38 | 50.47253 | 8.86874 | 7993 ft | 170 kts | 25° |
| 2026-05-01 10:38 | 50.48375 | 8.87493 | 7994 ft | 169 kts | 26° |
| 2026-05-01 10:38 | 50.49469 | 8.88102 | 7994 ft | 168 kts | 26° |
| 2026-05-01 10:38 | 50.50585 | 8.88719 | 7993 ft | 168 kts | 26° |
| 2026-05-01 10:39 | 50.51677 | 8.89322 | 7993 ft | 169 kts | 26° |
| 2026-05-01 10:39 | 50.52802 | 8.89940 | 8000 ft | 171 kts | 24° |
| 2026-05-01 10:39 | 50.53939 | 8.90474 | 7990 ft | 171 kts | 25° |
| 2026-05-01 10:39 | 50.55073 | 8.91051 | 7990 ft | 170 kts | 24° |
| 2026-05-01 10:40 | 50.56189 | 8.91608 | 8046 ft | 167 kts | 24° |
| 2026-05-01 10:40 | 50.57235 | 8.92111 | 8348 ft | 150 kts | 25° |
| 2026-05-01 10:40 | 50.58254 | 8.92621 | 8379 ft | 158 kts | 25° |
| 2026-05-01 10:40 | 50.59309 | 8.93145 | 8377 ft | 162 kts | 25° |
| 2026-05-01 10:41 | 50.60409 | 8.93685 | 8382 ft | 165 kts | 24° |
| 2026-05-01 10:41 | 50.61510 | 8.94229 | 8389 ft | 169 kts | 24° |
| 2026-05-01 10:41 | 50.63750 | 8.95332 | 8384 ft | 169 kts | 25° |
| 2026-05-01 10:42 | 50.64879 | 8.95892 | 8384 ft | 168 kts | 24° |
| 2026-05-01 10:42 | 50.65998 | 8.96443 | 8388 ft | 171 kts | 24° |
| 2026-05-01 10:42 | 50.67126 | 8.97009 | 8381 ft | 170 kts | 24° |
| 2026-05-01 10:42 | 50.68261 | 8.97539 | 8384 ft | 171 kts | 24° |
| 2026-05-01 10:43 | 50.69398 | 8.98118 | 8383 ft | 169 kts | 25° |
| 2026-05-01 10:43 | 50.70514 | 8.98683 | 8380 ft | 170 kts | 24° |
| 2026-05-01 10:43 | 50.71628 | 8.99235 | 8380 ft | 168 kts | 24° |
| 2026-05-01 10:43 | 50.72747 | 8.99789 | 8381 ft | 167 kts | 24° |
| 2026-05-01 10:44 | 50.73854 | 9.00331 | 8388 ft | 167 kts | 24° |
| 2026-05-01 10:44 | 50.74968 | 9.00878 | 8386 ft | 170 kts | 25° |
| 2026-05-01 10:44 | 50.76100 | 9.01448 | 8391 ft | 169 kts | 25° |
| 2026-05-01 10:44 | 50.77220 | 9.02001 | 8381 ft | 169 kts | 25° |
| 2026-05-01 10:45 | 50.78335 | 9.02556 | 8381 ft | 168 kts | 24° |
| 2026-05-01 10:45 | 50.79457 | 9.03114 | 8382 ft | 168 kts | 24° |
| 2026-05-01 10:45 | 50.80569 | 9.03664 | 8385 ft | 169 kts | 24° |
| 2026-05-01 10:45 | 50.81701 | 9.04225 | 8386 ft | 169 kts | 25° |
| 2026-05-01 10:46 | 50.82816 | 9.04783 | 8386 ft | 169 kts | 24° |
| 2026-05-01 10:46 | 50.83940 | 9.05347 | 8387 ft | 169 kts | 24° |
| 2026-05-01 10:46 | 50.85053 | 9.05901 | 8388 ft | 168 kts | 24° |
| 2026-05-01 10:46 | 50.86183 | 9.06463 | 8389 ft | 170 kts | 24° |
| 2026-05-01 10:47 | 50.87305 | 9.07040 | 8392 ft | 171 kts | 24° |
| 2026-05-01 10:47 | 50.88443 | 9.07591 | 8393 ft | 172 kts | 24° |
| 2026-05-01 10:47 | 50.89578 | 9.08146 | 8393 ft | 170 kts | 25° |
| 2026-05-01 10:47 | 50.90707 | 9.08708 | 8397 ft | 171 kts | 25° |
| 2026-05-01 10:48 | 50.91848 | 9.09284 | 8393 ft | 170 kts | 25° |
| 2026-05-01 10:48 | 50.92963 | 9.09848 | 8398 ft | 171 kts | 24° |
| 2026-05-01 10:48 | 50.94107 | 9.10415 | 8394 ft | 171 kts | 25° |
| 2026-05-01 10:48 | 50.95239 | 9.10987 | 8399 ft | 171 kts | 24° |
| 2026-05-01 10:49 | 50.96380 | 9.11558 | 8395 ft | 171 kts | 25° |
| 2026-05-01 10:49 | 50.97496 | 9.12121 | 8403 ft | 169 kts | 25° |
| 2026-05-01 10:49 | 50.98627 | 9.12684 | 8398 ft | 170 kts | 25° |
| 2026-05-01 10:49 | 50.99755 | 9.13253 | 8399 ft | 171 kts | 25° |
| 2026-05-01 10:50 | 51.00896 | 9.13833 | 8399 ft | 172 kts | 25° |
| 2026-05-01 10:50 | 51.02042 | 9.14399 | 8395 ft | 171 kts | 25° |
| 2026-05-01 10:50 | 51.03164 | 9.14959 | 8401 ft | 171 kts | 25° |
| 2026-05-01 10:50 | 51.04299 | 9.15530 | 8403 ft | 171 kts | 25° |
| 2026-05-01 10:51 | 51.05433 | 9.16107 | 8404 ft | 172 kts | 25° |
| 2026-05-01 10:51 | 51.06578 | 9.16675 | 8403 ft | 171 kts | 24° |
| 2026-05-01 10:51 | 51.07717 | 9.17248 | 8400 ft | 170 kts | 25° |
| 2026-05-01 10:51 | 51.08844 | 9.17815 | 8401 ft | 172 kts | 25° |
| 2026-05-01 10:52 | 51.09989 | 9.18392 | 8395 ft | 170 kts | 25° |
| 2026-05-01 10:52 | 51.11106 | 9.18958 | 8404 ft | 170 kts | 25° |
| 2026-05-01 10:52 | 51.12253 | 9.19538 | 8398 ft | 172 kts | 25° |
| 2026-05-01 10:52 | 51.13393 | 9.20115 | 8401 ft | 171 kts | 25° |
| 2026-05-01 10:53 | 51.14514 | 9.20677 | 8395 ft | 170 kts | 25° |
| 2026-05-01 10:53 | 51.15643 | 9.21246 | 8396 ft | 169 kts | 25° |
| 2026-05-01 10:53 | 51.16772 | 9.21814 | 8401 ft | 171 kts | 25° |
| 2026-05-01 10:53 | 51.17900 | 9.22390 | 8400 ft | 172 kts | 25° |
| 2026-05-01 10:54 | 51.19040 | 9.22979 | 8397 ft | 169 kts | 26° |
| 2026-05-01 10:54 | 51.20147 | 9.23535 | 8404 ft | 167 kts | 25° |
| 2026-05-01 10:54 | 51.21263 | 9.24090 | 8393 ft | 167 kts | 24° |
| 2026-05-01 10:54 | 51.22376 | 9.24651 | 8394 ft | 167 kts | 24° |
| 2026-05-01 10:55 | 51.23489 | 9.25210 | 8398 ft | 171 kts | 25° |
| 2026-05-01 10:55 | 51.24629 | 9.25795 | 8396 ft | 171 kts | 25° |
| 2026-05-01 10:55 | 51.25755 | 9.26373 | 8395 ft | 171 kts | 24° |
| 2026-05-01 10:55 | 51.26901 | 9.26938 | 8394 ft | 173 kts | 19° |
| 2026-05-01 10:56 | 51.28124 | 9.26976 | 8390 ft | 179 kts | 355° |
| 2026-05-01 10:56 | 51.29295 | 9.26312 | 8393 ft | 182 kts | 339° |
| 2026-05-01 10:56 | 51.30448 | 9.25493 | 8391 ft | 181 kts | 339° |
| 2026-05-01 10:56 | 51.31602 | 9.24674 | 8392 ft | 181 kts | 339° |
| 2026-05-01 10:57 | 51.32374 | 9.24119 | 8335 ft | 184 kts | 339° |
| 2026-05-01 10:57 | 51.33989 | 9.22969 | 7994 ft | 197 kts | 339° |
| 2026-05-01 10:57 | 51.34835 | 9.22360 | 7810 ft | 201 kts | 339° |
| 2026-05-01 10:57 | 51.36552 | 9.21143 | 7447 ft | 204 kts | 339° |
| 2026-05-01 10:58 | 51.37820 | 9.20240 | 7392 ft | 197 kts | 339° |
| 2026-05-01 10:58 | 51.38641 | 9.19644 | 7385 ft | 192 kts | 339° |
| 2026-05-01 10:58 | 51.39842 | 9.18779 | 7387 ft | 186 kts | 339° |
| 2026-05-01 10:58 | 51.41015 | 9.17939 | 7388 ft | 185 kts | 339° |
| 2026-05-01 10:59 | 51.42197 | 9.17103 | 7388 ft | 185 kts | 340° |
| 2026-05-01 10:59 | 51.43372 | 9.16262 | 7383 ft | 183 kts | 339° |
| 2026-05-01 10:59 | 51.44518 | 9.15432 | 7386 ft | 182 kts | 339° |
| 2026-05-01 10:59 | 51.45672 | 9.14603 | 7384 ft | 181 kts | 340° |
| 2026-05-01 11:00 | 51.46828 | 9.13784 | 7376 ft | 181 kts | 340° |
| 2026-05-01 11:00 | 51.47961 | 9.12967 | 7377 ft | 180 kts | 340° |
| 2026-05-01 11:00 | 51.49104 | 9.12143 | 7377 ft | 179 kts | 339° |
| 2026-05-01 11:00 | 51.50186 | 9.11154 | 7372 ft | 184 kts | 321° |
| 2026-05-01 11:01 | 51.50959 | 9.09520 | 7372 ft | 184 kts | 294° |
| 2026-05-01 11:01 | 51.51444 | 9.07644 | 7374 ft | 182 kts | 290° |
| 2026-05-01 11:01 | 51.51920 | 9.05746 | 7374 ft | 183 kts | 290° |
| 2026-05-01 11:01 | 51.52395 | 9.03864 | 7375 ft | 183 kts | 290° |
| 2026-05-01 11:02 | 51.52875 | 9.01945 | 7377 ft | 184 kts | 290° |
| 2026-05-01 11:02 | 51.53345 | 9.00050 | 7372 ft | 183 kts | 290° |
| 2026-05-01 11:02 | 51.53827 | 8.98155 | 7373 ft | 182 kts | 290° |
| 2026-05-01 11:02 | 51.54306 | 8.96259 | 7373 ft | 183 kts | 290° |
| 2026-05-01 11:03 | 51.54717 | 8.94333 | 7368 ft | 181 kts | 274° |
| 2026-05-01 11:03 | 51.54606 | 8.92377 | 7370 ft | 176 kts | 255° |
| 2026-05-01 11:03 | 51.54375 | 8.90418 | 7330 ft | 179 kts | 254° |
| 2026-05-01 11:03 | 51.54128 | 8.88432 | 7105 ft | 188 kts | 253° |
| 2026-05-01 11:04 | 51.53860 | 8.86332 | 6864 ft | 193 kts | 253° |
| 2026-05-01 11:04 | 51.53589 | 8.84204 | 6618 ft | 195 kts | 254° |
| 2026-05-01 11:04 | 51.53321 | 8.82081 | 6364 ft | 196 kts | 253° |
| 2026-05-01 11:04 | 51.53042 | 8.79924 | 6105 ft | 195 kts | 253° |
| 2026-05-01 11:05 | 51.52783 | 8.77816 | 5856 ft | 194 kts | 253° |
| 2026-05-01 11:05 | 51.52521 | 8.75684 | 5611 ft | 194 kts | 253° |
| 2026-05-01 11:05 | 51.52264 | 8.73566 | 5355 ft | 194 kts | 253° |
| 2026-05-01 11:05 | 51.52018 | 8.71430 | 5104 ft | 192 kts | 253° |
| 2026-05-01 11:06 | 51.51777 | 8.69323 | 4846 ft | 190 kts | 253° |
| 2026-05-01 11:06 | 51.51534 | 8.67261 | 4599 ft | 189 kts | 253° |
| 2026-05-01 11:06 | 51.51291 | 8.65200 | 4344 ft | 186 kts | 253° |
| 2026-05-01 11:07 | 51.50858 | 8.61142 | 3853 ft | 186 kts | 255° |
| 2026-05-01 11:07 | 51.50677 | 8.59079 | 3596 ft | 188 kts | 257° |
| 2026-05-01 11:07 | 51.50500 | 8.57061 | 3389 ft | 178 kts | 253° |
| 2026-05-01 11:07 | 51.50295 | 8.55185 | 3368 ft | 162 kts | 253° |
| 2026-05-01 11:08 | 51.50103 | 8.53438 | 3374 ft | 158 kts | 253° |
| 2026-05-01 11:08 | 51.49906 | 8.51685 | 3355 ft | 160 kts | 251° |
| 2026-05-01 11:08 | 51.50074 | 8.48164 | 3375 ft | 159 kts | 274° |
| 2026-05-01 11:09 | 51.50290 | 8.46405 | 3385 ft | 159 kts | 275° |
| 2026-05-01 11:09 | 51.50662 | 8.44718 | 3380 ft | 165 kts | 298° |
| 2026-05-01 11:09 | 51.51315 | 8.43202 | 3375 ft | 166 kts | 301° |
| 2026-05-01 11:10 | 51.53082 | 8.41231 | 3353 ft | 159 kts | 7° |
| 2026-05-01 11:10 | 51.54087 | 8.41898 | 3138 ft | 159 kts | 48° |
| 2026-05-01 11:10 | 51.54556 | 8.43378 | 2992 ft | 137 kts | 92° |
| 2026-05-01 11:10 | 51.54305 | 8.44680 | 2969 ft | 112 kts | 131° |
| 2026-05-01 11:11 | 51.53900 | 8.45712 | 2940 ft | 113 kts | 107° |
| 2026-05-01 11:11 | 51.54145 | 8.46959 | 2947 ft | 130 kts | 53° |
| 2026-05-01 11:11 | 51.54973 | 8.47549 | 2997 ft | 141 kts | 9° |
| 2026-05-01 11:11 | 51.55959 | 8.47497 | 2979 ft | 138 kts | 18° |
| 2026-05-01 11:12 | 51.56714 | 8.48240 | 2972 ft | 118 kts | 63° |
| 2026-05-01 11:12 | 51.56895 | 8.49365 | 2916 ft | 102 kts | 109° |
| 2026-05-01 11:12 | 51.56715 | 8.50391 | 2996 ft | 104 kts | 102° |
| 2026-05-01 11:12 | 51.56926 | 8.51532 | 2982 ft | 115 kts | 56° |
| 2026-05-01 11:13 | 51.57521 | 8.52416 | 2972 ft | 113 kts | 64° |
| 2026-05-01 11:13 | 51.57985 | 8.53409 | 2983 ft | 109 kts | 64° |
| 2026-05-01 11:13 | 51.58420 | 8.54400 | 3000 ft | 112 kts | 66° |
| 2026-05-01 11:13 | 51.58866 | 8.55437 | 2641 ft | 123 kts | 64° |
| 2026-05-01 11:14 | 51.59458 | 8.56682 | 1728 ft | 130 kts | 62° |
| 2026-05-01 11:14 | 51.59879 | 8.57753 | 1248 ft | 106 kts | 63° |
| 2026-05-01 11:14 | 51.60258 | 8.58747 | 1014 ft | 101 kts | 64° |
| 2026-05-01 11:14 | 51.60629 | 8.59667 | 825 ft | 91 kts | 68° |
| 2026-05-01 11:15 | 51.60929 | 8.60446 | 725 ft | 75 kts | 69° |
| 2026-05-01 11:15 | 51.61145 | 8.61006 | 709 ft | 44 kts | 51° |
| 2026-05-01 11:15 | 51.61224 | 8.61182 | 709 ft | 0 kts | 62° |